Time;durP1;ratioP1;P1;durP2;ratioP2;P2;SDS_P1;SDS_P2;PMS_P1;PMS_P2;Temp;Humidity;BMP_temperature;BMP_pressure;BME280_temperature;BME280_humidity;BME280_pressure;Samples;Min_cycle;Max_cycle;Signal;HPM_P1;HPM_P2
2022/07/12 00:06:16;;;;;;;;;;;;;;;;;;5111018;28;706;-67
2022/07/12 00:08:42;;;;;;;;;;;;;;;;;;5109895;28;1045;-67
2022/07/12 00:11:07;;;;;;;;;;;;;;;;;;5110369;28;928;-67
2022/07/12 00:13:32;;;;;;;;;;;;;;;;;;5110675;28;1902;-67
2022/07/12 00:15:57;;;;;;;;;;;;;;;;;;5110231;28;895;-67
2022/07/12 00:18:23;;;;;;;;;;;;;;;;;;5114298;28;1022;-67
2022/07/12 00:20:48;;;;;;;;;;;;;;;;;;5114836;28;1049;-67
2022/07/12 00:23:13;;;;;;;;;;;;;;;;;;5114107;27;884;-67
2022/07/12 00:25:39;;;;;;;;;;;;;;;;;;5115180;28;843;-67
2022/07/12 00:28:04;;;;;;;;;;;;;;;;;;5114067;28;1050;-68
2022/07/12 00:30:29;;;;;;;;;;;;;;;;;;5114522;28;919;-67
2022/07/12 00:32:54;;;;;;;;;;;;;;;;;;5114376;28;1002;-68
2022/07/12 00:35:20;;;;;;;;;;;;;;;;;;5113822;28;1922;-66
2022/07/12 00:37:45;;;;;;;;;;;;;;;;;;5114212;28;840;-67
2022/07/12 00:40:11;;;;;;;;;;;;;;;;;;5113775;28;879;-67
2022/07/12 00:42:38;;;;;;;;;;;;;;;;;;5113016;28;2368;-67
2022/07/12 00:45:04;;;;;;;;;;;;;;;;;;5113503;28;1198;-67
2022/07/12 00:47:40;;;;;;;;;;;;;;;;;;5114108;28;1315;-67
2022/07/12 00:50:07;;;;;;;;;;;;;;;;;;5113745;28;891;-67
2022/07/12 00:52:32;;;;;;;;;;;;;;;;;;5114646;28;776;-67
2022/07/12 00:54:57;;;;;;;;;;;;;;;;;;5114373;28;1918;-67
2022/07/12 00:57:23;;;;;;;;;;;;;;;;;;5114703;28;1057;-67
2022/07/12 00:59:49;;;;;;;;;;;;;;;;;;5114080;28;832;-67
2022/07/12 01:02:14;;;;;;;;;;;;;;;;;;5114642;28;899;-68
2022/07/12 01:04:40;;;;;;;;;;;;;;;;;;5115028;28;887;-67
2022/07/12 01:07:05;;;;;;;;;;;;;;;;;;5114416;28;954;-67
2022/07/12 01:09:30;;;;;;;;;;;;;;;;;;5114345;28;1233;-67
2022/07/12 01:11:56;;;;;;;;;;;;;;;;;;5113349;28;919;-67
2022/07/12 01:14:21;;;;;;;;;;;;;;;;;;5113143;28;1910;-67
2022/07/12 01:16:46;;;;;;;;;;;;;;;;;;5113722;28;923;-67
2022/07/12 01:19:17;;;;;;;;;;;;;;;;;;5112743;28;891;-67
2022/07/12 01:21:45;;;;;;;;;;;;;;;;;;5113423;28;880;-67
2022/07/12 01:24:11;;;;;;;;;;;;;;;;;;5113127;28;1018;-67
2022/07/12 01:26:36;;;;;;;;;;;;;;;;;;5112018;28;844;-67
2022/07/12 01:29:02;;;;;;;;;;;;;;;;;;5112448;28;905;-67
2022/07/12 01:31:27;;;;;;;;;;;;;;;;;;5112855;28;970;-68
2022/07/12 01:33:53;;;;;;;;;;;;;;;;;;5111141;28;1898;-67
2022/07/12 01:36:18;;;;;;;;;;;;;;;;;;5113087;28;934;-68
2022/07/12 01:38:43;;;;;;;;;;;;;;;;;;5113489;28;816;-67
2022/07/12 01:41:09;;;;;;;;;;;;;;;;;;5112917;28;832;-66
2022/07/12 01:43:34;;;;;;;;;;;;;;;;;;5112988;28;820;-67
2022/07/12 01:45:59;;;;;;;;;;;;;;;;;;5112612;28;1084;-67
2022/07/12 01:48:24;;;;;;;;;;;;;;;;;;5112976;28;927;-67
2022/07/12 01:50:50;;;;;;;;;;;;;;;;;;5112538;28;935;-67
2022/07/12 01:53:16;;;;;;;;;;;;;;;;;;5112681;28;1963;-67
2022/07/12 01:55:41;;;;;;;;;;;;;;;;;;5112986;28;840;-67
2022/07/12 01:58:06;;;;;;;;;;;;;;;;;;5111215;28;856;-67
2022/07/12 02:00:32;;;;;;;;;;;;;;;;;;5112567;28;1056;-67
2022/07/12 02:02:57;;;;;;;;;;;;;;;;;;5112084;28;928;-67
2022/07/12 02:05:22;;;;;;;;;;;;;;;;;;5112787;28;865;-67
2022/07/12 02:07:49;;;;;;;;;;;;;;;;;;5112777;28;931;-67
2022/07/12 02:10:14;;;;;;;;;;;;;;;;;;5112334;28;888;-67
2022/07/12 02:12:39;;;;;;;;;;;;;;;;;;5112416;28;825;-67
2022/07/12 02:15:05;;;;;;;;;;;;;;;;;;5111459;27;1955;-67
2022/07/12 02:17:31;;;;;;;;;;;;;;;;;;5112139;28;820;-67
2022/07/12 02:19:56;;;;;;;;;;;;;;;;;;5111924;28;895;-67
2022/07/12 02:22:21;;;;;;;;;;;;;;;;;;5112066;28;805;-67
2022/07/12 02:24:47;;;;;;;;;;;;;;;;;;5112316;28;819;-67
2022/07/12 02:27:12;;;;;;;;;;;;;;;;;;5111592;28;939;-67
2022/07/12 02:29:37;;;;;;;;;;;;;;;;;;5112436;28;911;-67
2022/07/12 02:32:03;;;;;;;;;;;;;;;;;;5111359;28;1019;-67
2022/07/12 02:34:28;;;;;;;;;;;;;;;;;;5112486;28;1954;-67
2022/07/12 02:36:53;;;;;;;;;;;;;;;;;;5112290;28;915;-67
2022/07/12 02:39:18;;;;;;;;;;;;;;;;;;5112175;28;903;-67
2022/07/12 02:41:43;;;;;;;;;;;;;;;;;;5112243;28;895;-67
2022/07/12 02:44:09;;;;;;;;;;;;;;;;;;5112155;28;1046;-67
2022/07/12 02:46:35;;;;;;;;;;;;;;;;;;5112144;28;1124;-67
2022/07/12 02:49:01;;;;;;;;;;;;;;;;;;5112051;28;1038;-67
2022/07/12 02:51:26;;;;;;;;;;;;;;;;;;5112695;28;891;-66
2022/07/12 02:53:52;;;;;;;;;;;;;;;;;;5112134;28;1917;-67
2022/07/12 02:56:17;;;;;;;;;;;;;;;;;;5111466;28;891;-67
2022/07/12 02:58:42;;;;;;;;;;;;;;;;;;5111695;28;946;-67
2022/07/12 03:01:07;;;;;;;;;;;;;;;;;;5111556;28;828;-67
2022/07/12 03:03:33;;;;;;;;;;;;;;;;;;5111811;28;816;-67
2022/07/12 03:05:58;;;;;;;;;;;;;;;;;;5111060;28;1057;-67
2022/07/12 03:08:23;;;;;;;;;;;;;;;;;;5110739;28;833;-68
2022/07/12 03:10:48;;;;;;;;;;;;;;;;;;5111934;28;895;-67
2022/07/12 03:13:14;;;;;;;;;;;;;;;;;;5111052;28;804;-67
2022/07/12 03:15:39;;;;;;;;;;;;;;;;;;5111812;28;1937;-67
2022/07/12 03:18:04;;;;;;;;;;;;;;;;;;5111433;28;832;-67
2022/07/12 03:20:30;;;;;;;;;;;;;;;;;;5111328;28;856;-67
2022/07/12 03:22:55;;;;;;;;;;;;;;;;;;5111203;28;833;-67
2022/07/12 03:25:21;;;;;;;;;;;;;;;;;;5111767;28;837;-66
2022/07/12 03:27:47;;;;;;;;;;;;;;;;;;5111625;28;884;-66
2022/07/12 03:30:12;;;;;;;;;;;;;;;;;;5109939;28;1013;-66
2022/07/12 03:32:38;;;;;;;;;;;;;;;;;;5111638;28;950;-66
2022/07/12 03:35:03;;;;;;;;;;;;;;;;;;5111076;28;1893;-66
2022/07/12 03:37:40;;;;;;;;;;;;;;;;;;5111859;28;1045;-66
2022/07/12 03:40:05;;;;;;;;;;;;;;;;;;5111499;28;1010;-66
2022/07/12 03:42:30;;;;;;;;;;;;;;;;;;5111617;28;1000;-66
2022/07/12 03:44:56;;;;;;;;;;;;;;;;;;5109814;28;1039;-66
2022/07/12 03:47:21;;;;;;;;;;;;;;;;;;5112356;28;864;-66
2022/07/12 03:49:46;;;;;;;;;;;;;;;;;;5109955;28;886;-66
2022/07/12 03:52:11;;;;;;;;;;;;;;;;;;5113041;28;1006;-66
2022/07/12 03:54:36;;;;;;;;;;;;;;;;;;5115179;28;1983;-66
2022/07/12 03:57:14;;;;;;;;;;;;;;;;;;5114760;28;983;-66
2022/07/12 03:59:43;;;;;;;;;;;;;;;;;;5115126;28;915;-66
2022/07/12 04:02:08;;;;;;;;;;;;;;;;;;5114629;28;963;-66
2022/07/12 04:04:33;;;;;;;;;;;;;;;;;;5115077;28;884;-66
2022/07/12 04:06:59;;;;;;;;;;;;;;;;;;5113063;28;966;-65
2022/07/12 04:09:24;;;;;;;;;;;;;;;;;;5114843;28;912;-68
2022/07/12 04:11:49;;;;;;;;;;;;;;;;;;5115158;28;812;-66
2022/07/12 04:14:15;;;;;;;;;;;;;;;;;;5114422;28;1965;-67
2022/07/12 04:16:40;;;;;;;;;;;;;;;;;;5114757;28;841;-67
2022/07/12 04:19:05;;;;;;;;;;;;;;;;;;5114486;28;856;-67
2022/07/12 04:21:31;;;;;;;;;;;;;;;;;;5114782;28;1007;-68
2022/07/12 04:23:56;;;;;;;;;;;;;;;;;;5114017;28;918;-67
2022/07/12 04:26:21;;;;;;;;;;;;;;;;;;5114975;27;884;-67
2022/07/12 04:28:46;;;;;;;;;;;;;;;;;;5114639;28;907;-67
2022/07/12 04:31:12;;;;;;;;;;;;;;;;;;5114735;27;800;-67
2022/07/12 04:33:37;;;;;;;;;;;;;;;;;;5115010;28;1914;-67
2022/07/12 04:36:02;;;;;;;;;;;;;;;;;;5114880;28;804;-67
2022/07/12 04:38:28;;;;;;;;;;;;;;;;;;5115045;28;1173;-67
2022/07/12 04:40:53;;;;;;;;;;;;;;;;;;5114456;28;911;-67
2022/07/12 04:43:18;;;;;;;;;;;;;;;;;;5115190;28;824;-67
2022/07/12 04:45:44;;;;;;;;;;;;;;;;;;5114625;28;1048;-67
2022/07/12 04:48:10;;;;;;;;;;;;;;;;;;5114832;28;835;-67
2022/07/12 04:50:35;;;;;;;;;;;;;;;;;;5114370;27;975;-67
2022/07/12 04:53:00;;;;;;;;;;;;;;;;;;5113819;28;1002;-67
2022/07/12 04:55:25;;;;;;;;;;;;;;;;;;5112618;28;1910;-67
2022/07/12 04:57:50;;;;;;;;;;;;;;;;;;5113666;28;900;-67
2022/07/12 05:00:16;;;;;;;;;;;;;;;;;;5113637;28;922;-67
2022/07/12 05:02:41;;;;;;;;;;;;;;;;;;5113233;28;986;-67
2022/07/12 05:05:07;;;;;;;;;;;;;;;;;;5113580;28;880;-67
2022/07/12 05:07:32;;;;;;;;;;;;;;;;;;5112803;28;779;-67
2022/07/12 05:09:58;;;;;;;;;;;;;;;;;;5113745;28;820;-67
2022/07/12 05:12:23;;;;;;;;;;;;;;;;;;5113920;28;879;-67
2022/07/12 05:14:48;;;;;;;;;;;;;;;;;;5112340;28;1902;-67
2022/07/12 05:17:13;;;;;;;;;;;;;;;;;;5113252;28;750;-67
2022/07/12 05:19:39;;;;;;;;;;;;;;;;;;5113957;28;895;-67
2022/07/12 05:22:04;;;;;;;;;;;;;;;;;;5113234;28;998;-67
2022/07/12 05:24:29;;;;;;;;;;;;;;;;;;5113596;28;820;-67
2022/07/12 05:26:55;;;;;;;;;;;;;;;;;;5113569;28;816;-67
2022/07/12 05:29:20;;;;;;;;;;;;;;;;;;5111966;28;980;-67
2022/07/12 05:31:45;;;;;;;;;;;;;;;;;;5113279;28;958;-66
2022/07/12 05:34:10;;;;;;;;;;;;;;;;;;5113022;28;1949;-66
2022/07/12 05:36:35;;;;;;;;;;;;;;;;;;5113631;28;876;-66
2022/07/12 05:39:01;;;;;;;;;;;;;;;;;;5112610;28;975;-67
2022/07/12 05:41:26;;;;;;;;;;;;;;;;;;5113254;28;979;-66
2022/07/12 05:43:51;;;;;;;;;;;;;;;;;;5111741;28;790;-67
2022/07/12 05:46:16;;;;;;;;;;;;;;;;;;5112171;28;1210;-66
2022/07/12 05:48:42;;;;;;;;;;;;;;;;;;5112817;27;955;-66
2022/07/12 05:53:51;;;;;;;;;;;;;;;;;;5112782;28;1981;-67
2022/07/12 05:56:16;;;;;;;;;;;;;;;;;;5111273;28;872;-66
2022/07/12 05:58:42;;;;;;;;;;;;;;;;;;5112555;28;998;-67
2022/07/12 06:01:07;;;;;;;;;;;;;;;;;;5112164;28;856;-67
2022/07/12 06:03:32;;;;;;;;;;;;;;;;;;5112880;28;781;-66
2022/07/12 06:05:58;;;;;;;;;;;;;;;;;;5112496;28;887;-66
2022/07/12 06:08:23;;;;;;;;;;;;;;;;;;5112720;27;698;-66
2022/07/12 06:10:48;;;;;;;;;;;;;;;;;;5112239;28;637;-66
2022/07/12 06:13:14;;;;;;;;;;;;;;;;;;5111981;28;856;-66
2022/07/12 06:15:39;;;;;;;;;;;;;;;;;;5111857;28;1905;-67
2022/07/12 06:18:04;;;;;;;;;;;;;;;;;;5111690;28;879;-66
2022/07/12 06:20:29;;;;;;;;;;;;;;;;;;5111081;28;808;-68
2022/07/12 06:22:55;;;;;;;;;;;;;;;;;;5110416;28;946;-65
2022/07/12 06:25:20;;;;;;;;;;;;;;;;;;5113133;28;869;-68
2022/07/12 06:27:47;;;;;;;;;;;;;;;;;;5113175;28;856;-68
2022/07/12 06:30:13;;;;;;;;;;;;;;;;;;5112445;28;1107;-65
2022/07/12 06:32:39;;;;;;;;;;;;;;;;;;5113297;28;888;-68
2022/07/12 06:35:04;;;;;;;;;;;;;;;;;;5112618;28;1957;-68
2022/07/12 06:37:29;;;;;;;;;;;;;;;;;;5112976;27;999;-67
2022/07/12 06:39:55;;;;;;;;;;;;;;;;;;5112688;28;1003;-68
2022/07/12 06:42:20;;;;;;;;;;;;;;;;;;5112383;28;883;-67
2022/07/12 06:44:45;;;;;;;;;;;;;;;;;;5111982;28;1293;-68
2022/07/12 06:47:10;;;;;;;;;;;;;;;;;;5111693;28;1190;-67
2022/07/12 06:49:36;;;;;;;;;;;;;;;;;;5112153;28;781;-68
2022/07/12 06:52:01;;;;;;;;;;;;;;;;;;5111259;28;887;-67
2022/07/12 06:54:26;;;;;;;;;;;;;;;;;;5112003;28;1966;-67
2022/07/12 06:56:52;;;;;;;;;;;;;;;;;;5112113;28;844;-68
2022/07/12 06:59:17;;;;;;;;;;;;;;;;;;5111501;28;867;-68
2022/07/12 07:01:43;;;;;;;;;;;;;;;;;;5111774;28;816;-68
2022/07/12 07:04:08;;;;;;;;;;;;;;;;;;5111363;28;812;-66
2022/07/12 07:06:33;;;;;;;;;;;;;;;;;;5111529;28;1042;-66
2022/07/12 07:08:58;;;;;;;;;;;;;;;;;;5110203;28;967;-66
2022/07/12 07:11:24;;;;;;;;;;;;;;;;;;5110532;28;793;-66
2022/07/12 07:13:50;;;;;;;;;;;;;;;;;;5111679;28;1897;-66
2022/07/12 07:16:15;;;;;;;;;;;;;;;;;;5110919;28;879;-67
2022/07/12 07:18:40;;;;;;;;;;;;;;;;;;5112045;28;946;-66
2022/07/12 07:21:06;;;;;;;;;;;;;;;;;;5110887;28;963;-67
2022/07/12 07:23:31;;;;;;;;;;;;;;;;;;5111568;28;876;-66
2022/07/12 07:25:57;;;;;;;;;;;;;;;;;;5110844;28;801;-66
2022/07/12 07:28:22;;;;;;;;;;;;;;;;;;5110959;28;914;-66
2022/07/12 07:30:53;;;;;;;;;;;;;;;;;;5111479;28;864;-66
2022/07/12 07:33:19;;;;;;;;;;;;;;;;;;5110728;28;849;-66
2022/07/12 07:35:45;;;;;;;;;;;;;;;;;;5111728;28;1972;-66
2022/07/12 07:38:10;;;;;;;;;;;;;;;;;;5110777;28;640;-66
2022/07/12 07:40:36;;;;;;;;;;;;;;;;;;5111410;28;832;-66
2022/07/12 07:43:01;;;;;;;;;;;;;;;;;;5110689;28;994;-67
2022/07/12 07:45:26;;;;;;;;;;;;;;;;;;5111165;28;1249;-66
2022/07/12 07:47:51;;;;;;;;;;;;;;;;;;5111000;28;813;-66
2022/07/12 07:50:17;;;;;;;;;;;;;;;;;;5110454;28;817;-67
2022/07/12 07:52:42;;;;;;;;;;;;;;;;;;5109784;28;828;-66
2022/07/12 07:55:07;;;;;;;;;;;;;;;;;;5110966;28;1910;-66
2022/07/12 07:57:32;;;;;;;;;;;;;;;;;;5112434;28;991;-66
2022/07/12 07:59:58;;;;;;;;;;;;;;;;;;5111991;28;897;-67
2022/07/12 08:02:23;;;;;;;;;;;;;;;;;;5111908;28;967;-67
2022/07/12 08:04:48;;;;;;;;;;;;;;;;;;5112018;28;887;-67
2022/07/12 08:07:13;;;;;;;;;;;;;;;;;;5111354;28;868;-67
2022/07/12 08:09:39;;;;;;;;;;;;;;;;;;5112209;28;875;-67
2022/07/12 08:12:04;;;;;;;;;;;;;;;;;;5111345;28;840;-67
2022/07/12 08:14:29;;;;;;;;;;;;;;;;;;5093751;28;1970;-66
2022/07/12 08:16:55;;;;;;;;;;;;;;;;;;5110169;28;891;-67
2022/07/12 08:19:20;;;;;;;;;;;;;;;;;;5111958;28;879;-67
2022/07/12 08:21:45;;;;;;;;;;;;;;;;;;5111797;28;935;-67
2022/07/12 08:24:11;;;;;;;;;;;;;;;;;;5111267;28;925;-67
2022/07/12 08:26:36;;;;;;;;;;;;;;;;;;5112050;28;840;-66
2022/07/12 08:29:02;;;;;;;;;;;;;;;;;;5110619;28;931;-67
2022/07/12 08:31:27;;;;;;;;;;;;;;;;;;5110733;28;856;-67
2022/07/12 08:33:52;;;;;;;;;;;;;;;;;;5110510;28;1898;-67
2022/07/12 08:36:17;;;;;;;;;;;;;;;;;;5108665;28;1340;-67
2022/07/12 08:38:44;;;;;;;;;;;;;;;;;;5113812;28;1030;-67
2022/07/12 08:41:11;;;;;;;;;;;;;;;;;;5112973;28;828;-67
2022/07/12 08:43:36;;;;;;;;;;;;;;;;;;5113380;28;1864;-67
2022/07/12 08:46:06;;;;;;;;;;;;;;;;;;5113697;28;1209;-67
2022/07/12 08:48:31;;;;;;;;;;;;;;;;;;5114438;28;817;-67
2022/07/12 08:51:01;;;;;;;;;;;;;;;;;;5114565;28;828;-67
2022/07/12 08:53:26;;;;;;;;;;;;;;;;;;5114599;28;808;-66
2022/07/12 08:55:51;;;;;;;;;;;;;;;;;;5114453;28;1983;-67
2022/07/12 08:58:18;;;;;;;;;;;;;;;;;;5114723;27;820;-67
2022/07/12 09:00:43;;;;;;;;;;;;;;;;;;5115678;28;1176;-67
2022/07/12 09:03:12;;;;;;;;;;;;;;;;;;5115790;28;979;-67
2022/07/12 09:05:37;;;;;;;;;;;;;;;;;;5116626;28;894;-67
2022/07/12 09:08:02;;;;;;;;;;;;;;;;;;5115704;28;1050;-67
2022/07/12 09:10:28;;;;;;;;;;;;;;;;;;5115466;28;848;-67
2022/07/12 09:12:53;;;;;;;;;;;;;;;;;;5115996;28;852;-67
2022/07/12 09:15:19;;;;;;;;;;;;;;;;;;5116549;28;1893;-66
2022/07/12 09:17:57;;;;;;;;;;;;;;;;;;5117633;28;884;-67
2022/07/12 09:20:26;;;;;;;;;;;;;;;;;;5116241;28;805;-66
2022/07/12 09:22:53;;;;;;;;;;;;;;;;;;5114042;27;888;-67
2022/07/12 09:25:18;;;;;;;;;;;;;;;;;;5113420;28;812;-66
2022/07/12 09:27:48;;;;;;;;;;;;;;;;;;5115727;28;813;-66
2022/07/12 09:30:13;;;;;;;;;;;;;;;;;;5116176;28;995;-67
2022/07/12 09:38:17;;;;;;;;;;;;;;;;;;5112825;28;645;-67
2022/07/12 09:40:42;;;;;;;;;;;;;;;;;;5113451;28;958;-66
2022/07/12 09:43:08;;;;;;;;;;;;;;;;;;5113052;28;939;-67
2022/07/12 09:45:34;;;;;;;;;;;;;;;;;;5112685;28;1209;-67
2022/07/12 09:48:00;;;;;;;;;;;;;;;;;;5113233;28;875;-66
2022/07/12 09:50:25;;;;;;;;;;;;;;;;;;5112226;28;958;-66
2022/07/12 09:52:53;;;;;;;;;;;;;;;;;;5113883;28;1030;-67
2022/07/12 09:55:20;;;;;;;;;;;;;;;;;;5113202;28;1910;-67
2022/07/12 09:57:46;;;;;;;;;;;;;;;;;;5113799;28;865;-67
2022/07/12 10:00:11;;;;;;;;;;;;;;;;;;5113182;28;915;-67
2022/07/12 10:02:37;;;;;;;;;;;;;;;;;;5113719;28;914;-67
2022/07/12 10:05:04;;;;;;;;;;;;;;;;;;5112928;28;867;-67
2022/07/12 10:07:30;;;;;;;;;;;;;;;;;;5113155;28;833;-66
2022/07/12 10:09:56;;;;;;;;;;;;;;;;;;5112468;28;998;-66
2022/07/12 10:12:22;;;;;;;;;;;;;;;;;;5111939;28;809;-66
2022/07/12 10:15:08;;;;;;;;;;;;;;;;;;5112500;28;1972;-66
2022/07/12 10:17:34;;;;;;;;;;;;;;;;;;5111628;28;1088;-66
2022/07/12 10:20:16;;;;;;;;;;;;;;;;;;5112592;28;1014;-66
2022/07/12 10:22:41;;;;;;;;;;;;;;;;;;5112154;28;879;-66
2022/07/12 10:25:26;;;;;;;;;;;;;;;;;;5110855;28;864;-66
2022/07/12 10:27:52;;;;;;;;;;;;;;;;;;5111652;28;1018;-67
2022/07/12 10:30:18;;;;;;;;;;;;;;;;;;5111773;28;915;-67
2022/07/12 10:32:44;;;;;;;;;;;;;;;;;;5111856;28;1233;-67
2022/07/12 10:35:15;;;;;;;;;;;;;;;;;;5111622;28;1889;-67
2022/07/12 10:37:40;;;;;;;;;;;;;;;;;;5112160;28;774;-67
2022/07/12 10:40:11;;;;;;;;;;;;;;;;;;5111595;28;983;-67
2022/07/12 10:42:37;;;;;;;;;;;;;;;;;;5111850;28;855;-67
2022/07/12 10:45:28;;;;;;;;;;;;;;;;;;5110963;28;1052;-67
2022/07/12 10:47:57;;;;;;;;;;;;;;;;;;5109508;28;1131;-67
2022/07/12 10:50:41;;;;;;;;;;;;;;;;;;5111149;28;824;-67
2022/07/12 10:53:18;;;;;;;;;;;;;;;;;;5111894;28;867;-67
2022/07/12 10:56:02;;;;;;;;;;;;;;;;;;5111269;28;1917;-67
2022/07/12 10:58:31;;;;;;;;;;;;;;;;;;5111308;28;888;-67
2022/07/12 11:00:57;;;;;;;;;;;;;;;;;;5111221;28;923;-67
2022/07/12 11:03:23;;;;;;;;;;;;;;;;;;5110829;28;1006;-67
2022/07/12 11:05:48;;;;;;;;;;;;;;;;;;5111741;28;924;-67
2022/07/12 11:08:14;;;;;;;;;;;;;;;;;;5110785;28;853;-67
2022/07/12 11:10:39;;;;;;;;;;;;;;;;;;5111873;28;1069;-66
2022/07/12 11:13:19;;;;;;;;;;;;;;;;;;5110831;28;967;-66
2022/07/12 11:15:55;;;;;;;;;;;;;;;;;;5110846;28;1960;-66
2022/07/12 11:18:33;;;;;;;;;;;;;;;;;;5110717;28;924;-67
2022/07/12 11:20:59;;;;;;;;;;;;;;;;;;5110979;28;871;-67
2022/07/12 11:23:26;;;;;;;;;;;;;;;;;;5110325;28;868;-66
2022/07/12 11:25:52;;;;;;;;;;;;;;;;;;5112178;28;860;-67
2022/07/12 11:28:18;;;;;;;;;;;;;;;;;;5111224;28;1053;-67
2022/07/12 11:30:49;;;;;;;;;;;;;;;;;;5111630;28;836;-67
2022/07/12 11:33:15;;;;;;;;;;;;;;;;;;5111605;28;876;-67
2022/07/12 11:35:43;;;;;;;;;;;;;;;;;;5111722;28;1914;-67
2022/07/12 11:38:08;;;;;;;;;;;;;;;;;;5111422;28;832;-67
2022/07/12 11:40:33;;;;;;;;;;;;;;;;;;5112007;28;871;-67
2022/07/12 11:42:59;;;;;;;;;;;;;;;;;;5111281;28;962;-67
2022/07/12 11:45:26;;;;;;;;;;;;;;;;;;5110766;28;1203;-67
2022/07/12 11:47:52;;;;;;;;;;;;;;;;;;5110846;28;792;-67
2022/07/12 11:50:17;;;;;;;;;;;;;;;;;;5110593;28;871;-68
2022/07/12 11:52:43;;;;;;;;;;;;;;;;;;5110624;28;832;-67
2022/07/12 11:55:08;;;;;;;;;;;;;;;;;;5110539;28;1906;-68
2022/07/12 11:57:34;;;;;;;;;;;;;;;;;;5109666;28;903;-68
2022/07/12 12:00:12;;;;;;;;;;;;;;;;;;5111260;28;909;-67
2022/07/12 12:02:37;;;;;;;;;;;;;;;;;;5111051;28;1225;-68
2022/07/12 12:05:04;;;;;;;;;;;;;;;;;;5110524;28;895;-67
2022/07/12 12:07:29;;;;;;;;;;;;;;;;;;5110906;28;816;-67
2022/07/12 12:10:11;;;;;;;;;;;;;;;;;;5111143;28;939;-68
2022/07/12 12:12:44;;;;;;;;;;;;;;;;;;5112216;28;946;-67
2022/07/12 12:15:11;;;;;;;;;;;;;;;;;;5114379;28;2287;-67
2022/07/12 12:17:37;;;;;;;;;;;;;;;;;;5113928;28;1375;-67
2022/07/12 12:20:13;;;;;;;;;;;;;;;;;;5114081;28;820;-67
2022/07/12 12:22:38;;;;;;;;;;;;;;;;;;5114691;28;833;-67
2022/07/12 12:25:05;;;;;;;;;;;;;;;;;;5114273;28;879;-67
2022/07/12 12:27:31;;;;;;;;;;;;;;;;;;5114613;28;801;-67
2022/07/12 12:30:06;;;;;;;;;;;;;;;;;;5114342;28;1025;-67
2022/07/12 12:32:42;;;;;;;;;;;;;;;;;;5114407;28;982;-67
2022/07/12 12:35:08;;;;;;;;;;;;;;;;;;5114278;28;1955;-67
2022/07/12 12:37:33;;;;;;;;;;;;;;;;;;5112950;28;891;-68
2022/07/12 12:39:59;;;;;;;;;;;;;;;;;;5114143;28;982;-68
2022/07/12 12:42:24;;;;;;;;;;;;;;;;;;5113859;28;899;-68
2022/07/12 12:44:50;;;;;;;;;;;;;;;;;;5113995;28;960;-67
2022/07/12 12:47:30;;;;;;;;;;;;;;;;;;5113526;28;1290;-67
2022/07/12 12:49:57;;;;;;;;;;;;;;;;;;5113683;28;839;-67
2022/07/12 12:52:23;;;;;;;;;;;;;;;;;;5113727;28;845;-67
2022/07/12 12:54:49;;;;;;;;;;;;;;;;;;5113487;28;1914;-68
2022/07/12 12:57:14;;;;;;;;;;;;;;;;;;5113918;28;1111;-67
2022/07/12 12:59:40;;;;;;;;;;;;;;;;;;5114967;28;939;-68
2022/07/12 13:02:06;;;;;;;;;;;;;;;;;;5114407;28;875;-68
2022/07/12 13:04:32;;;;;;;;;;;;;;;;;;5114634;28;820;-67
2022/07/12 13:06:58;;;;;;;;;;;;;;;;;;5113753;28;880;-67
2022/07/12 13:09:24;;;;;;;;;;;;;;;;;;5112933;28;883;-67
2022/07/12 13:11:49;;;;;;;;;;;;;;;;;;5114141;28;821;-67
2022/07/12 13:14:15;;;;;;;;;;;;;;;;;;5113642;28;1972;-67
2022/07/12 13:16:40;;;;;;;;;;;;;;;;;;5114010;28;1056;-67
2022/07/12 13:19:07;;;;;;;;;;;;;;;;;;5113814;28;849;-67
2022/07/12 13:21:32;;;;;;;;;;;;;;;;;;5114198;28;924;-67
2022/07/12 13:23:57;;;;;;;;;;;;;;;;;;5111922;28;882;-67
2022/07/12 13:26:23;;;;;;;;;;;;;;;;;;5113293;28;899;-67
2022/07/12 13:28:48;;;;;;;;;;;;;;;;;;5113043;28;1057;-67
2022/07/12 13:31:13;;;;;;;;;;;;;;;;;;5112754;28;1006;-67
2022/07/12 13:33:39;;;;;;;;;;;;;;;;;;5113367;28;1003;-68
2022/07/12 13:36:04;;;;;;;;;;;;;;;;;;5111308;28;1987;-67
2022/07/12 13:38:29;;;;;;;;;;;;;;;;;;5113160;28;1074;-67
2022/07/12 13:40:55;;;;;;;;;;;;;;;;;;5112906;28;1053;-68
2022/07/12 13:43:20;;;;;;;;;;;;;;;;;;5112934;28;1150;-67
2022/07/12 13:45:46;;;;;;;;;;;;;;;;;;5112910;28;1040;-67
2022/07/12 13:48:14;;;;;;;;;;;;;;;;;;5111368;28;895;-67
2022/07/12 13:50:39;;;;;;;;;;;;;;;;;;5113025;27;868;-67
2022/07/12 13:53:05;;;;;;;;;;;;;;;;;;5112002;28;844;-67
2022/07/12 13:55:31;;;;;;;;;;;;;;;;;;5113008;28;1969;-67
2022/07/12 13:57:56;;;;;;;;;;;;;;;;;;5112714;28;824;-67
2022/07/12 14:00:21;;;;;;;;;;;;;;;;;;5112598;28;942;-67
2022/07/12 14:02:48;;;;;;;;;;;;;;;;;;5111524;28;923;-67
2022/07/12 14:05:14;;;;;;;;;;;;;;;;;;5112159;28;1137;-67
2022/07/12 14:07:40;;;;;;;;;;;;;;;;;;5111430;28;876;-67
2022/07/12 14:10:06;;;;;;;;;;;;;;;;;;5110583;28;880;-67
2022/07/12 14:12:32;;;;;;;;;;;;;;;;;;5112649;28;829;-67
2022/07/12 14:17:38;;;;;;;;;;;;;;;;;;5111759;28;760;-67
2022/07/12 14:20:04;;;;;;;;;;;;;;;;;;5111993;28;811;-67
2022/07/12 14:22:29;;;;;;;;;;;;;;;;;;5111141;28;2182;-67
2022/07/12 14:24:55;;;;;;;;;;;;;;;;;;5112122;28;982;-67
2022/07/12 14:27:20;;;;;;;;;;;;;;;;;;5111941;28;892;-67
2022/07/12 14:29:45;;;;;;;;;;;;;;;;;;5112208;28;1055;-67
2022/07/12 14:32:11;;;;;;;;;;;;;;;;;;5112099;28;836;-67
2022/07/12 14:34:37;;;;;;;;;;;;;;;;;;5110852;28;1955;-67
2022/07/12 14:37:02;;;;;;;;;;;;;;;;;;5110274;28;1398;-67
2022/07/12 14:39:28;;;;;;;;;;;;;;;;;;5112488;28;895;-67
2022/07/12 14:41:53;;;;;;;;;;;;;;;;;;5112139;28;892;-67
2022/07/12 14:44:19;;;;;;;;;;;;;;;;;;5112688;28;836;-67
2022/07/12 14:46:44;;;;;;;;;;;;;;;;;;5112196;28;1172;-67
2022/07/12 14:49:09;;;;;;;;;;;;;;;;;;5112353;28;1002;-67
2022/07/12 14:51:35;;;;;;;;;;;;;;;;;;5112627;28;827;-67
2022/07/12 14:54:00;;;;;;;;;;;;;;;;;;5112445;28;1991;-67
2022/07/12 14:56:26;;;;;;;;;;;;;;;;;;5112568;28;864;-67
2022/07/12 14:58:51;;;;;;;;;;;;;;;;;;5112090;28;871;-67
2022/07/12 15:01:17;;;;;;;;;;;;;;;;;;5113362;28;1231;-68
2022/07/12 15:03:43;;;;;;;;;;;;;;;;;;5112155;28;1275;-67
2022/07/12 15:06:08;;;;;;;;;;;;;;;;;;5113564;28;829;-67
2022/07/12 15:08:33;;;;;;;;;;;;;;;;;;5112222;28;753;-67
2022/07/12 15:10:59;;;;;;;;;;;;;;;;;;5112353;28;879;-67
2022/07/12 15:13:24;;;;;;;;;;;;;;;;;;5111512;28;893;-67
2022/07/12 15:15:50;;;;;;;;;;;;;;;;;;5112174;28;1977;-67
2022/07/12 15:18:15;;;;;;;;;;;;;;;;;;5110846;28;856;-67
2022/07/12 15:20:40;;;;;;;;;;;;;;;;;;5110154;28;868;-67
2022/07/12 15:23:06;;;;;;;;;;;;;;;;;;5110550;28;1047;-67
2022/07/12 15:25:32;;;;;;;;;;;;;;;;;;5111296;28;852;-68
2022/07/12 15:27:57;;;;;;;;;;;;;;;;;;5110588;28;919;-67
2022/07/12 15:30:22;;;;;;;;;;;;;;;;;;5110672;28;1032;-68
2022/07/12 15:32:48;;;;;;;;;;;;;;;;;;5109969;28;974;-68
2022/07/12 15:35:13;;;;;;;;;;;;;;;;;;5110373;28;1957;-67
2022/07/12 15:37:39;;;;;;;;;;;;;;;;;;5111561;28;851;-67
2022/07/12 15:40:05;;;;;;;;;;;;;;;;;;5111189;28;938;-68
2022/07/12 15:42:30;;;;;;;;;;;;;;;;;;5109569;28;1119;-68
2022/07/12 15:44:56;;;;;;;;;;;;;;;;;;5110847;28;1078;-68
2022/07/12 15:47:21;;;;;;;;;;;;;;;;;;5112964;28;978;-67
2022/07/12 15:49:46;;;;;;;;;;;;;;;;;;5114207;28;933;-68
2022/07/12 15:54:55;;;;;;;;;;;;;;;;;;5115610;28;1975;-67
2022/07/12 15:57:21;;;;;;;;;;;;;;;;;;5115193;28;891;-67
2022/07/12 15:59:46;;;;;;;;;;;;;;;;;;5115290;28;907;-68
2022/07/12 16:02:11;;;;;;;;;;;;;;;;;;5114321;28;1065;-67
2022/07/12 16:04:37;;;;;;;;;;;;;;;;;;5115115;28;1114;-67
2022/07/12 16:07:05;;;;;;;;;;;;;;;;;;5115024;28;1034;-67
2022/07/12 16:09:31;;;;;;;;;;;;;;;;;;5114598;28;904;-67
2022/07/12 16:11:57;;;;;;;;;;;;;;;;;;5114986;28;833;-67
2022/07/12 16:14:22;;;;;;;;;;;;;;;;;;5112796;28;1958;-67
2022/07/12 16:16:47;;;;;;;;;;;;;;;;;;5114780;28;903;-67
2022/07/12 16:19:13;;;;;;;;;;;;;;;;;;5114245;28;891;-67
2022/07/12 16:21:38;;;;;;;;;;;;;;;;;;5115367;28;878;-68
2022/07/12 16:24:04;;;;;;;;;;;;;;;;;;5114736;28;804;-67
2022/07/12 16:26:29;;;;;;;;;;;;;;;;;;5114494;28;820;-67
2022/07/12 16:28:54;;;;;;;;;;;;;;;;;;5115175;28;1011;-67
2022/07/12 16:31:19;;;;;;;;;;;;;;;;;;5113907;28;820;-68
2022/07/12 16:33:45;;;;;;;;;;;;;;;;;;5114632;28;962;-67
2022/07/12 16:36:10;;;;;;;;;;;;;;;;;;5113496;28;1910;-67
2022/07/12 16:38:35;;;;;;;;;;;;;;;;;;5114486;28;911;-67
2022/07/12 16:41:00;;;;;;;;;;;;;;;;;;5112827;28;947;-67
2022/07/12 16:43:25;;;;;;;;;;;;;;;;;;5114386;28;954;-67
2022/07/12 16:45:51;;;;;;;;;;;;;;;;;;5114662;28;1073;-67
2022/07/12 16:48:16;;;;;;;;;;;;;;;;;;5114347;28;966;-68
2022/07/12 16:50:41;;;;;;;;;;;;;;;;;;5115284;28;955;-67
2022/07/12 16:53:07;;;;;;;;;;;;;;;;;;5114264;28;812;-67
2022/07/12 16:55:32;;;;;;;;;;;;;;;;;;5115002;28;1965;-67
2022/07/12 16:57:58;;;;;;;;;;;;;;;;;;5114066;28;990;-66
2022/07/12 17:00:23;;;;;;;;;;;;;;;;;;5113994;28;895;-67
2022/07/12 17:02:49;;;;;;;;;;;;;;;;;;5113994;28;888;-67
2022/07/12 17:05:15;;;;;;;;;;;;;;;;;;5113147;28;918;-67
2022/07/12 17:07:40;;;;;;;;;;;;;;;;;;5114274;28;804;-67
2022/07/12 17:10:06;;;;;;;;;;;;;;;;;;5113279;28;896;-67
2022/07/12 17:12:32;;;;;;;;;;;;;;;;;;5113453;28;1076;-67
2022/07/12 17:14:57;;;;;;;;;;;;;;;;;;5114096;28;1945;-67
2022/07/12 17:17:23;;;;;;;;;;;;;;;;;;5113031;28;801;-67
2022/07/12 17:19:48;;;;;;;;;;;;;;;;;;5113621;28;875;-67
2022/07/12 17:22:14;;;;;;;;;;;;;;;;;;5112748;28;899;-67
2022/07/12 17:24:39;;;;;;;;;;;;;;;;;;5113818;28;874;-67
2022/07/12 17:27:05;;;;;;;;;;;;;;;;;;5113841;28;970;-66